createdAt,value
2019-03-08T00:01:07.053Z,995.19
2019-03-08T00:02:16.779Z,995.07
2019-03-08T00:03:26.762Z,995.12
2019-03-08T00:04:36.758Z,995.26
2019-03-08T00:05:46.491Z,995.17
2019-03-08T00:06:56.025Z,995.14
2019-03-08T00:08:06.028Z,995.05
2019-03-08T00:09:15.995Z,995.01
2019-03-08T00:10:25.744Z,995.27
2019-03-08T00:11:35.774Z,995.01
2019-03-08T00:12:45.748Z,995.07
2019-03-08T00:13:55.730Z,994.92
2019-03-08T00:15:05.734Z,994.91
2019-03-08T00:16:15.724Z,994.95
2019-03-08T00:17:25.721Z,994.92
2019-03-08T00:18:35.696Z,994.96
2019-03-08T00:19:45.495Z,995.03
2019-03-08T00:20:55.474Z,995.02
2019-03-08T00:22:05.776Z,994.96
2019-03-08T00:23:15.509Z,994.97
2019-03-08T00:24:25.710Z,994.94
2019-03-08T00:25:36.179Z,994.9
2019-03-08T00:26:46.764Z,994.99
2019-03-08T00:27:56.908Z,994.92
2019-03-08T00:29:08.393Z,994.88
2019-03-08T00:30:18.348Z,994.91
2019-03-08T00:31:28.515Z,994.86
2019-03-08T00:32:38.491Z,994.92
2019-03-08T00:33:48.488Z,994.87
2019-03-08T00:34:58.272Z,994.74
2019-03-08T00:36:08.433Z,994.92
2019-03-08T00:37:18.154Z,994.9
2019-03-08T00:38:28.132Z,994.88
2019-03-08T00:39:37.626Z,994.87
2019-03-08T00:40:47.665Z,994.92
2019-03-08T00:41:57.653Z,994.88
2019-03-08T00:43:07.628Z,994.86
2019-03-08T00:44:17.350Z,994.92
2019-03-08T00:45:27.338Z,994.79
2019-03-08T00:46:37.326Z,994.84
2019-03-08T00:47:47.309Z,994.78
2019-03-08T00:48:57.297Z,994.75
2019-03-08T00:50:08.703Z,994.87
2019-03-08T00:51:18.679Z,994.94
2019-03-08T00:52:28.671Z,994.91
2019-03-08T00:53:40.660Z,994.86
2019-03-08T00:54:50.390Z,994.83
2019-03-08T00:56:00.421Z,994.85
2019-03-08T00:57:10.173Z,994.77
2019-03-08T00:58:19.695Z,994.79
2019-03-08T00:59:29.763Z,994.59
2019-03-08T01:00:39.567Z,994.76
2019-03-08T01:01:49.043Z,994.76
2019-03-08T01:02:59.118Z,994.76
2019-03-08T01:04:09.199Z,994.88
2019-03-08T01:05:19.184Z,994.82
2019-03-08T01:06:30.721Z,994.68
2019-03-08T01:07:40.448Z,994.7
2019-03-08T01:08:50.192Z,994.69
2019-03-08T01:09:59.421Z,994.73
2019-03-08T01:11:09.165Z,994.71
2019-03-08T01:12:19.155Z,994.56
2019-03-08T01:13:29.123Z,994.58
2019-03-08T01:14:39.117Z,994.75
2019-03-08T01:15:49.337Z,994.62
2019-03-08T01:16:59.588Z,994.55
2019-03-08T01:18:09.649Z,994.4
2019-03-08T01:19:20.005Z,994.45
2019-03-08T01:20:30.390Z,994.66
2019-03-08T01:21:40.619Z,994.53
2019-03-08T01:22:51.146Z,994.5
2019-03-08T01:24:01.264Z,994.55
2019-03-08T01:25:11.128Z,994.45
2019-03-08T01:26:22.047Z,994.52
2019-03-08T01:27:31.791Z,994.35
2019-03-08T01:28:41.786Z,994.55
2019-03-08T01:29:51.758Z,994.84
2019-03-08T01:31:01.245Z,994.36
2019-03-08T01:32:10.247Z,994.53
2019-03-08T01:33:19.730Z,994.6
2019-03-08T01:34:29.493Z,994.54
2019-03-08T01:35:39.472Z,994.45
2019-03-08T01:36:49.223Z,994.7
2019-03-08T01:37:58.963Z,994.48
2019-03-08T01:39:08.701Z,994.4
2019-03-08T01:40:18.437Z,994.53
2019-03-08T01:41:28.929Z,994.58
2019-03-08T01:42:38.909Z,994.55
2019-03-08T01:43:50.970Z,994.63
2019-03-08T01:45:00.703Z,994.43
2019-03-08T01:46:11.470Z,994.63
2019-03-08T01:47:21.463Z,994.51
2019-03-08T01:48:31.429Z,994.56
2019-03-08T01:49:41.413Z,994.52
2019-03-08T01:50:51.399Z,994.63
2019-03-08T01:52:00.890Z,994.55
2019-03-08T01:53:10.629Z,994.52
2019-03-08T01:54:20.372Z,994.35
2019-03-08T01:55:30.376Z,994.26
2019-03-08T01:56:40.380Z,994.17
2019-03-08T01:57:50.347Z,994.11
2019-03-08T01:59:00.338Z,994.38
2019-03-08T02:00:10.751Z,994.27
2019-03-08T02:01:20.075Z,994.19
2019-03-08T02:02:30.059Z,994.58
2019-03-08T02:03:40.073Z,994.36
2019-03-08T02:04:50.050Z,994.23
2019-03-08T02:06:00.030Z,994.37
2019-03-08T02:07:10.023Z,994.25
2019-03-08T02:08:19.854Z,994.28
2019-03-08T02:09:30.110Z,994.35
2019-03-08T02:10:40.080Z,994.18
2019-03-08T02:11:50.516Z,994.19
2019-03-08T02:13:00.696Z,994.2
2019-03-08T02:14:11.331Z,994.25
2019-03-08T02:15:21.605Z,994.32
2019-03-08T02:16:31.679Z,994.33
2019-03-08T02:17:41.515Z,994.19
2019-03-08T02:18:51.182Z,994.06
2019-03-08T02:20:01.237Z,994.14
2019-03-08T02:21:11.218Z,994.15
2019-03-08T02:22:21.202Z,994.12
2019-03-08T02:23:31.330Z,994.02
2019-03-08T02:24:41.323Z,994.16
2019-03-08T02:25:51.063Z,994.07
2019-03-08T02:27:01.058Z,994.27
2019-03-08T02:28:10.795Z,993.9
2019-03-08T02:29:20.811Z,993.95
2019-03-08T02:30:30.808Z,993.88
2019-03-08T02:31:40.813Z,993.96
2019-03-08T02:32:50.557Z,993.78
2019-03-08T02:34:00.536Z,993.81
2019-03-08T02:35:10.280Z,993.76
2019-03-08T02:36:20.295Z,993.78
2019-03-08T02:37:30.279Z,993.62
2019-03-08T02:38:39.769Z,993.59
2019-03-08T02:39:49.744Z,993.82
2019-03-08T02:40:59.467Z,993.55
2019-03-08T02:42:09.184Z,993.88
2019-03-08T02:43:19.178Z,993.8
2019-03-08T02:44:28.929Z,993.88
2019-03-08T02:45:38.902Z,993.79
2019-03-08T02:46:48.673Z,993.79
2019-03-08T02:47:58.397Z,993.76
2019-03-08T02:49:08.404Z,993.98
2019-03-08T02:50:17.907Z,993.97
2019-03-08T02:51:27.898Z,993.95
2019-03-08T02:52:37.679Z,993.9
2019-03-08T02:53:47.423Z,993.78
2019-03-08T02:54:57.421Z,993.82
2019-03-08T02:56:06.647Z,993.89
2019-03-08T02:57:16.386Z,993.81
2019-03-08T02:58:26.123Z,993.9
2019-03-08T02:59:36.110Z,993.87
2019-03-08T03:00:46.104Z,993.79
2019-03-08T03:01:56.095Z,993.89
2019-03-08T03:03:06.075Z,993.93
2019-03-08T03:04:16.089Z,993.91
2019-03-08T03:05:26.094Z,993.87
2019-03-08T03:06:37.391Z,994.39
2019-03-08T03:07:47.716Z,993.73
2019-03-08T03:08:58.273Z,993.98
2019-03-08T03:10:08.592Z,993.94
2019-03-08T03:11:18.811Z,993.94
2019-03-08T03:12:28.744Z,994
2019-03-08T03:13:38.456Z,993.85
2019-03-08T03:14:48.475Z,994.02
2019-03-08T03:15:57.952Z,993.85
2019-03-08T03:17:07.684Z,993.93
2019-03-08T03:18:17.415Z,993.72
2019-03-08T03:19:27.142Z,993.99
2019-03-08T03:20:36.876Z,993.8
2019-03-08T03:21:46.654Z,993.75
2019-03-08T03:22:56.627Z,993.86
2019-03-08T03:24:06.615Z,994.06
2019-03-08T03:25:16.595Z,993.84
2019-03-08T03:26:26.321Z,993.7
2019-03-08T03:27:36.300Z,993.78
2019-03-08T03:28:46.023Z,993.58
2019-03-08T03:29:56.025Z,993.67
2019-03-08T03:31:06.037Z,993.75
2019-03-08T03:32:15.796Z,993.71
2019-03-08T03:33:25.805Z,993.81
2019-03-08T03:34:35.791Z,993.72
2019-03-08T03:35:45.790Z,993.76
2019-03-08T03:36:55.542Z,993.48
2019-03-08T03:38:05.265Z,993.71
2019-03-08T03:39:15.009Z,993.79
2019-03-08T03:40:24.996Z,993.94
2019-03-08T03:41:35.017Z,993.79
2019-03-08T03:42:44.510Z,993.59
2019-03-08T03:43:54.246Z,993.7
2019-03-08T03:45:04.234Z,993.79
2019-03-08T03:46:14.217Z,993.59
2019-03-08T03:47:24.216Z,993.64
2019-03-08T03:48:34.195Z,993.63
2019-03-08T03:49:43.925Z,993.62
2019-03-08T03:50:53.939Z,993.68
2019-03-08T03:52:03.677Z,993.78
2019-03-08T03:53:13.648Z,993.8
2019-03-08T03:54:22.875Z,993.52
2019-03-08T03:55:32.854Z,993.36
2019-03-08T03:56:42.339Z,993.58
2019-03-08T03:57:54.066Z,993.71
2019-03-08T03:59:04.057Z,993.38
2019-03-08T04:00:13.797Z,993.39
2019-03-08T04:01:23.802Z,993.84
2019-03-08T04:02:33.973Z,993.48
2019-03-08T04:03:44.306Z,993.6
2019-03-08T04:04:54.726Z,993.46
2019-03-08T04:06:04.682Z,993.55
2019-03-08T04:07:15.112Z,993.48
2019-03-08T04:08:25.526Z,993.59
2019-03-08T04:09:35.896Z,993.41
2019-03-08T04:10:46.093Z,993.63
2019-03-08T04:11:55.932Z,993.61
2019-03-08T04:13:05.945Z,993.78
2019-03-08T04:14:15.924Z,993.52
2019-03-08T04:15:25.162Z,993.75
2019-03-08T04:16:35.168Z,993.71
2019-03-08T04:17:45.172Z,993.51
2019-03-08T04:18:55.194Z,993.55
2019-03-08T04:20:05.176Z,993.44
2019-03-08T04:21:15.164Z,993.43
2019-03-08T04:22:25.132Z,993.42
2019-03-08T04:23:34.625Z,993.5
2019-03-08T04:24:44.362Z,993.38
2019-03-08T04:25:54.092Z,993.45
2019-03-08T04:27:03.848Z,993.31
2019-03-08T04:28:13.597Z,993.34
2019-03-08T04:29:23.590Z,993.24
2019-03-08T04:30:33.569Z,993.42
2019-03-08T04:31:43.026Z,993.41
2019-03-08T04:32:52.763Z,993.42
2019-03-08T04:34:04.047Z,993.54
2019-03-08T04:35:13.863Z,993.48
2019-03-08T04:36:23.844Z,993.45
2019-03-08T04:37:35.578Z,993.36
2019-03-08T04:38:45.558Z,993.38
2019-03-08T04:39:54.796Z,993.21
2019-03-08T04:41:04.814Z,993.42
2019-03-08T04:42:14.799Z,993.43
2019-03-08T04:43:24.766Z,993.38
2019-03-08T04:44:34.757Z,993.16
2019-03-08T04:45:44.755Z,993.42
2019-03-08T04:46:54.482Z,993.15
2019-03-08T04:48:03.714Z,993.37
2019-03-08T04:49:13.686Z,993.2
2019-03-08T04:50:23.656Z,993.66
2019-03-08T04:51:33.390Z,993.15
2019-03-08T04:52:43.386Z,993.27
2019-03-08T04:53:53.348Z,993.48
2019-03-08T04:55:03.084Z,993.17
2019-03-08T04:56:13.071Z,993.42
2019-03-08T04:57:22.544Z,993.23
2019-03-08T04:58:32.023Z,993.25
2019-03-08T04:59:42.024Z,993.28
2019-03-08T05:00:52.257Z,993.43
2019-03-08T05:02:02.218Z,993.39
2019-03-08T05:03:12.242Z,993.62
2019-03-08T05:04:22.343Z,993.24
2019-03-08T05:05:32.842Z,993.53
2019-03-08T05:06:43.296Z,993.63
2019-03-08T05:07:53.598Z,993.41
2019-03-08T05:09:03.743Z,993.28
2019-03-08T05:10:13.926Z,993.23
2019-03-08T05:11:23.827Z,993.22
2019-03-08T05:12:33.581Z,993.29
2019-03-08T05:13:43.606Z,993.48
2019-03-08T05:14:53.598Z,993.27
2019-03-08T05:16:03.572Z,993.27
2019-03-08T05:17:13.066Z,993.23
2019-03-08T05:18:23.050Z,993.3
2019-03-08T05:19:33.562Z,993.12
2019-03-08T05:20:43.558Z,993.25
2019-03-08T05:21:53.073Z,993.33
2019-03-08T05:23:02.798Z,993.24
2019-03-08T05:24:12.775Z,993.27
2019-03-08T05:25:22.803Z,993.18
2019-03-08T05:26:32.800Z,993.14
2019-03-08T05:27:42.274Z,992.97
2019-03-08T05:28:52.054Z,993.17
2019-03-08T05:30:01.545Z,993.23
2019-03-08T05:31:11.544Z,993.06
2019-03-08T05:32:21.713Z,993.2
2019-03-08T05:33:31.719Z,993.25
2019-03-08T05:34:41.455Z,993.16
2019-03-08T05:35:50.954Z,993.26
2019-03-08T05:37:00.663Z,993.39
2019-03-08T05:38:10.166Z,993.1
2019-03-08T05:39:20.148Z,993.17
2019-03-08T05:40:30.145Z,993.15
2019-03-08T05:41:40.143Z,993.25
2019-03-08T05:42:49.874Z,993.24
2019-03-08T05:43:59.607Z,993.46
2019-03-08T05:45:09.120Z,993.49
2019-03-08T05:46:18.858Z,993.49
2019-03-08T05:47:28.851Z,993.39
2019-03-08T05:48:38.838Z,993.39
2019-03-08T05:49:48.828Z,993.45
2019-03-08T05:50:58.820Z,993.18
2019-03-08T05:52:08.555Z,993.37
2019-03-08T05:53:18.060Z,993.27
2019-03-08T05:54:28.058Z,993.38
2019-03-08T05:55:38.041Z,993.39
2019-03-08T05:56:48.033Z,993.6
2019-03-08T05:57:57.929Z,993.5
2019-03-08T05:59:07.696Z,993.72
2019-03-08T06:00:17.686Z,993.63
2019-03-08T06:01:38.678Z,993.62
2019-03-08T06:02:48.840Z,993.62
2019-03-08T06:03:59.067Z,993.55
2019-03-08T06:05:09.449Z,993.65
2019-03-08T06:06:19.711Z,994.28
2019-03-08T06:07:31.392Z,993.7
2019-03-08T06:08:41.123Z,993.93
2019-03-08T06:09:51.116Z,993.79
2019-03-08T06:11:01.103Z,994.16
2019-03-08T06:12:11.092Z,993.68
2019-03-08T06:13:21.088Z,993.76
2019-03-08T06:14:31.075Z,993.47
2019-03-08T06:15:40.804Z,993.47
2019-03-08T06:16:50.543Z,993.66
2019-03-08T06:18:00.533Z,994.59
2019-03-08T06:19:10.527Z,993.6
2019-03-08T06:20:20.507Z,993.87
2019-03-08T06:21:30.525Z,994.07
2019-03-08T06:22:40.518Z,994.01
2019-03-08T06:23:50.270Z,993.77
2019-03-08T06:25:00.302Z,994.22
2019-03-08T06:26:10.333Z,993.99
2019-03-08T06:27:20.323Z,994.62
2019-03-08T06:28:30.195Z,993.86
2019-03-08T06:29:40.202Z,993.71
2019-03-08T06:30:50.170Z,993.84
2019-03-08T06:32:00.172Z,993.81
2019-03-08T06:33:09.919Z,993.8
2019-03-08T06:34:19.663Z,993.7
2019-03-08T06:35:29.655Z,993.93
2019-03-08T06:36:39.407Z,993.74
2019-03-08T06:37:48.913Z,994.02
2019-03-08T06:38:58.651Z,994
2019-03-08T06:40:08.637Z,993.82
2019-03-08T06:41:18.375Z,995.58
2019-03-08T06:42:28.119Z,993.97
2019-03-08T06:43:38.097Z,994.37
2019-03-08T06:44:48.079Z,994.19
2019-03-08T06:45:58.074Z,994.07
2019-03-08T06:47:07.576Z,994.04
2019-03-08T06:48:17.306Z,994.07
2019-03-08T06:49:27.288Z,994.17
2019-03-08T06:50:37.277Z,994.18
2019-03-08T06:51:47.265Z,994.19
2019-03-08T06:52:57.246Z,994.55
2019-03-08T06:54:07.024Z,994.11
2019-03-08T06:55:16.528Z,994.22
2019-03-08T06:56:26.024Z,994.46
2019-03-08T06:57:35.529Z,993.97
2019-03-08T06:58:45.571Z,994.21
2019-03-08T06:59:55.582Z,994.42
2019-03-08T07:01:05.316Z,994.21
2019-03-08T07:02:15.063Z,994.61
2019-03-08T07:03:24.548Z,994.55
2019-03-08T07:04:34.039Z,994.36
2019-03-08T07:05:43.738Z,994.53
2019-03-08T07:06:53.695Z,995.2
2019-03-08T07:08:04.111Z,994.7
2019-03-08T07:09:14.488Z,994.62
2019-03-08T07:10:25.213Z,994.52
2019-03-08T07:11:35.663Z,994.57
2019-03-08T07:12:45.953Z,994.55
2019-03-08T07:14:05.374Z,994.64
2019-03-08T07:15:15.381Z,995.4
2019-03-08T07:16:25.387Z,994.55
2019-03-08T07:17:35.121Z,995.03
2019-03-08T07:18:44.878Z,994.89
2019-03-08T07:19:54.620Z,994.75
2019-03-08T07:21:04.354Z,994.79
2019-03-08T07:22:14.361Z,994.63
2019-03-08T07:23:27.778Z,994.75
2019-03-08T07:24:38.161Z,994.74
2019-03-08T07:25:51.337Z,995.2
2019-03-08T07:27:02.497Z,995.04
2019-03-08T07:28:12.477Z,995.22
2019-03-08T07:29:22.481Z,994.96
2019-03-08T07:30:32.455Z,995.15
2019-03-08T07:31:42.456Z,995.1
2019-03-08T07:32:51.936Z,995.65
2019-03-08T07:34:01.923Z,995.16
2019-03-08T07:35:13.227Z,995.11
2019-03-08T07:36:24.764Z,995.26
2019-03-08T07:37:34.381Z,995.11
2019-03-08T07:38:45.545Z,995.43
2019-03-08T07:39:55.285Z,995.38
2019-03-08T07:41:05.032Z,995.02
2019-03-08T07:42:14.767Z,995.81
2019-03-08T07:43:24.808Z,995.36
2019-03-08T07:44:34.549Z,995.41
2019-03-08T07:45:44.548Z,995.22
2019-03-08T07:46:54.541Z,995.44
2019-03-08T07:48:04.538Z,995.57
2019-03-08T07:49:14.748Z,995.27
2019-03-08T07:50:25.712Z,995.56
2019-03-08T07:51:36.317Z,995.45
2019-03-08T07:52:46.634Z,995.4
2019-03-08T07:53:57.088Z,995.57
2019-03-08T07:55:07.306Z,995.7
2019-03-08T07:56:17.675Z,995.63
2019-03-08T07:57:27.609Z,995.64
2019-03-08T07:58:37.398Z,995.73
2019-03-08T07:59:53.538Z,995.68
2019-03-08T08:01:03.539Z,995.63
2019-03-08T08:02:13.559Z,995.7
2019-03-08T08:03:23.568Z,995.88
2019-03-08T08:04:33.323Z,995.88
2019-03-08T08:05:43.323Z,995.71
2019-03-08T08:07:02.661Z,995.73
2019-03-08T08:08:11.933Z,996.06
2019-03-08T08:09:21.950Z,996.04
2019-03-08T08:10:31.682Z,996.14
2019-03-08T08:11:41.431Z,995.83
2019-03-08T08:12:51.423Z,996.13
2019-03-08T08:14:01.415Z,996.02
2019-03-08T08:15:11.411Z,996.84
2019-03-08T08:16:21.167Z,996.11
2019-03-08T08:17:31.158Z,996.19
2019-03-08T08:18:41.153Z,996.26
2019-03-08T08:19:50.932Z,996.09
2019-03-08T08:21:01.287Z,996.28
2019-03-08T08:22:12.259Z,996.23
2019-03-08T08:23:22.122Z,996.58
2019-03-08T08:24:43.149Z,996.36
2019-03-08T08:25:53.592Z,996.4
2019-03-08T08:27:04.070Z,996.42
2019-03-08T08:28:14.295Z,996.5
2019-03-08T08:29:24.436Z,996.49
2019-03-08T08:30:42.513Z,996.35
2019-03-08T08:31:51.766Z,996.61
2019-03-08T08:33:01.547Z,996.55
2019-03-08T08:34:11.535Z,996.56
2019-03-08T08:35:22.508Z,996.71
2019-03-08T08:36:32.498Z,996.95
2019-03-08T08:37:42.500Z,996.78
2019-03-08T08:38:52.504Z,997.07
2019-03-08T08:40:02.488Z,996.94
2019-03-08T08:41:12.491Z,996.76
2019-03-08T08:42:22.479Z,996.82
2019-03-08T08:43:32.451Z,996.99
2019-03-08T08:44:42.206Z,996.95
2019-03-08T08:45:53.670Z,996.94
2019-03-08T08:47:03.165Z,997.05
2019-03-08T08:48:15.013Z,996.93
2019-03-08T08:49:25.091Z,996.99
2019-03-08T08:50:35.733Z,997.06
2019-03-08T08:51:45.798Z,997.08
2019-03-08T08:52:55.600Z,997.02
2019-03-08T08:54:05.323Z,997.07
2019-03-08T08:55:15.292Z,997.23
2019-03-08T08:56:25.303Z,996.96
2019-03-08T08:57:35.277Z,997.26
2019-03-08T08:58:45.012Z,997.29
2019-03-08T08:59:56.985Z,997.07
2019-03-08T09:01:07.130Z,997.38
2019-03-08T09:02:17.187Z,997.33
2019-03-08T09:03:27.511Z,997.26
2019-03-08T09:04:37.767Z,997.62
2019-03-08T09:05:47.974Z,997.25
2019-03-08T09:06:59.252Z,997.48
2019-03-08T09:08:09.839Z,997.34
2019-03-08T09:09:20.077Z,997.22
2019-03-08T09:10:30.492Z,997.35
2019-03-08T09:11:44.377Z,997.44
2019-03-08T09:13:00.604Z,997.45
2019-03-08T09:14:10.588Z,997.6
2019-03-08T09:15:20.325Z,997.43
2019-03-08T09:16:30.350Z,997.6
2019-03-08T09:17:40.101Z,997.47
2019-03-08T09:18:49.836Z,997.4
2019-03-08T09:19:59.417Z,997.61
2019-03-08T09:21:09.460Z,997.58
2019-03-08T09:22:19.440Z,997.91
2019-03-08T09:23:29.172Z,997.75
2019-03-08T09:24:39.175Z,997.58
2019-03-08T09:25:49.147Z,997.49
2019-03-08T09:26:58.667Z,997.62
2019-03-08T09:28:08.656Z,997.74
2019-03-08T09:29:18.648Z,997.78
2019-03-08T09:30:28.401Z,997.78
2019-03-08T09:31:38.403Z,997.92
2019-03-08T09:32:48.385Z,997.84
2019-03-08T09:34:06.905Z,997.58
2019-03-08T09:35:16.892Z,997.95
2019-03-08T09:36:26.670Z,997.86
2019-03-08T09:37:36.423Z,998
2019-03-08T09:38:46.178Z,998.65
2019-03-08T09:39:55.925Z,997.94
2019-03-08T09:41:05.668Z,998.25
2019-03-08T09:42:15.652Z,998.22
2019-03-08T09:43:25.669Z,998.15
2019-03-08T09:44:35.678Z,998.14
2019-03-08T09:45:46.014Z,998.12
2019-03-08T09:46:56.304Z,998.99
2019-03-08T09:48:06.410Z,998.37
2019-03-08T09:49:16.805Z,998.48
2019-03-08T09:50:27.127Z,998.44
2019-03-08T09:51:37.712Z,998.45
2019-03-08T09:52:47.353Z,998.51
2019-03-08T09:53:57.558Z,998.49
2019-03-08T09:55:07.679Z,998.45
2019-03-08T09:56:17.232Z,998.77
2019-03-08T09:57:27.208Z,999.06
2019-03-08T09:58:37.186Z,998.66
2019-03-08T09:59:46.423Z,998.99
2019-03-08T10:00:56.415Z,998.63
2019-03-08T10:02:06.167Z,998.7
2019-03-08T10:03:16.169Z,998.72
2019-03-08T10:04:25.899Z,998.78
2019-03-08T10:05:35.902Z,998.85
2019-03-08T10:06:45.932Z,998.92
2019-03-08T10:07:55.934Z,998.86
2019-03-08T10:09:05.938Z,998.96
2019-03-08T10:10:15.930Z,998.98
2019-03-08T10:11:25.913Z,998.92
2019-03-08T10:12:35.693Z,998.92
2019-03-08T10:13:45.177Z,998.98
2019-03-08T10:14:55.202Z,999.17
2019-03-08T10:16:04.945Z,999.17
2019-03-08T10:17:14.932Z,999.07
2019-03-08T10:18:24.676Z,999.43
2019-03-08T10:19:34.403Z,999.2
2019-03-08T10:20:44.378Z,999.49
2019-03-08T10:21:54.152Z,999.22
2019-03-08T10:23:04.134Z,999.38
2019-03-08T10:24:22.770Z,999.24
2019-03-08T10:25:32.519Z,999.56
2019-03-08T10:26:42.007Z,999.36
2019-03-08T10:27:52.009Z,999.46
2019-03-08T10:29:02.010Z,999.43
2019-03-08T10:30:11.982Z,999.71
2019-03-08T10:31:21.958Z,999.5
2019-03-08T10:32:37.214Z,999.42
2019-03-08T10:33:47.728Z,999.63
2019-03-08T10:34:58.092Z,999.52
2019-03-08T10:36:08.700Z,999.68
2019-03-08T10:37:19.198Z,999.57
2019-03-08T10:38:28.992Z,999.55
2019-03-08T10:39:39.104Z,999.77
2019-03-08T10:40:49.308Z,999.61
2019-03-08T10:41:59.400Z,999.76
2019-03-08T10:43:09.384Z,1000
2019-03-08T10:44:19.366Z,999.8
2019-03-08T10:45:29.356Z,1000.07
2019-03-08T10:46:39.360Z,999.82
2019-03-08T10:47:55.726Z,999.96
2019-03-08T10:49:06.066Z,999.83
2019-03-08T10:50:16.070Z,999.91
2019-03-08T10:51:26.076Z,1000.17
2019-03-08T10:52:36.093Z,999.94
2019-03-08T10:53:46.090Z,999.86
2019-03-08T10:55:03.493Z,1000.1
2019-03-08T10:56:13.266Z,1000.03
2019-03-08T10:57:23.014Z,999.88
2019-03-08T10:58:33.053Z,1000.25
2019-03-08T10:59:43.064Z,999.91
2019-03-08T11:00:52.566Z,1000.07
2019-03-08T11:02:02.574Z,1000.06
2019-03-08T11:03:12.577Z,999.96
2019-03-08T11:04:22.329Z,1000.05
2019-03-08T11:05:32.066Z,1000.01
2019-03-08T11:06:42.042Z,1000.21
2019-03-08T11:07:51.786Z,1000.13
2019-03-08T11:09:01.780Z,1000.21
2019-03-08T11:10:11.758Z,1000.17
2019-03-08T11:11:21.760Z,1000.23
2019-03-08T11:12:31.769Z,1000.33
2019-03-08T11:13:43.352Z,1000.28
2019-03-08T11:14:53.168Z,1000.39
2019-03-08T11:16:03.692Z,1000.27
2019-03-08T11:17:14.101Z,1000.44
2019-03-08T11:18:24.560Z,1000.5
2019-03-08T11:19:35.059Z,1000.44
2019-03-08T11:20:46.428Z,1000.4
2019-03-08T11:21:56.694Z,1000.16
2019-03-08T11:23:06.848Z,1000.57
2019-03-08T11:24:16.585Z,1000.28
2019-03-08T11:25:34.668Z,1000.54
2019-03-08T11:26:44.640Z,1000.55
2019-03-08T11:27:54.386Z,1000.67
2019-03-08T11:29:04.384Z,1000.62
2019-03-08T11:30:14.114Z,1000.6
2019-03-08T11:31:24.742Z,1000.62
2019-03-08T11:32:35.493Z,1000.69
2019-03-08T11:33:46.893Z,1000.72
2019-03-08T11:34:56.913Z,1000.81
2019-03-08T11:36:06.456Z,1000.73
2019-03-08T11:37:16.440Z,1000.56
2019-03-08T11:38:28.259Z,1000.89
2019-03-08T11:39:37.763Z,1000.5
2019-03-08T11:40:47.755Z,1000.93
2019-03-08T11:41:58.418Z,1000.99
2019-03-08T11:43:08.408Z,1001.07
2019-03-08T11:44:18.390Z,1001.14
2019-03-08T11:45:28.414Z,1001.27
2019-03-08T11:46:38.414Z,1001.52
2019-03-08T11:47:48.406Z,1001.56
2019-03-08T11:48:58.155Z,1001.73
2019-03-08T11:50:07.916Z,1001.82
2019-03-08T11:51:17.658Z,1001.77
2019-03-08T11:52:27.402Z,1001.69
2019-03-08T11:53:37.384Z,1001.4
2019-03-08T11:54:56.371Z,1001.42
2019-03-08T11:56:06.794Z,1001.53
2019-03-08T11:57:17.253Z,1001.41
2019-03-08T11:58:27.555Z,1001.46
2019-03-08T11:59:37.667Z,1001.55
2019-03-08T12:00:47.653Z,1001.45
2019-03-08T12:01:59.151Z,1001.35
2019-03-08T12:03:08.733Z,1001.35
2019-03-08T12:04:18.478Z,1001.33
2019-03-08T12:05:28.478Z,1001.36
2019-03-08T12:06:38.481Z,1001.32
2019-03-08T12:07:48.491Z,1001.38
2019-03-08T12:08:58.214Z,1001.57
2019-03-08T12:10:07.969Z,1001.5
2019-03-08T12:11:17.439Z,1001.52
2019-03-08T12:12:27.453Z,1001.56
2019-03-08T12:13:37.575Z,1001.43
2019-03-08T12:14:47.583Z,1001.61
2019-03-08T12:15:57.586Z,1001.63
2019-03-08T12:17:07.331Z,1001.53
2019-03-08T12:18:17.317Z,1001.59
2019-03-08T12:19:27.311Z,1001.58
2019-03-08T12:20:37.326Z,1001.56
2019-03-08T12:21:46.838Z,1001.54
2019-03-08T12:22:56.881Z,1001.56
2019-03-08T12:24:06.950Z,1001.54
2019-03-08T12:25:16.953Z,1001.69
2019-03-08T12:26:26.984Z,1001.66
2019-03-08T12:27:36.753Z,1001.68
2019-03-08T12:28:46.297Z,1001.59
2019-03-08T12:29:56.369Z,1001.71
2019-03-08T12:31:07.369Z,1001.65
2019-03-08T12:32:17.367Z,1001.73
2019-03-08T12:33:28.851Z,1001.79
2019-03-08T12:34:38.850Z,1001.62
2019-03-08T12:35:48.851Z,1001.68
2019-03-08T12:36:58.576Z,1001.75
2019-03-08T12:38:08.591Z,1001.83
2019-03-08T12:39:18.324Z,1001.88
2019-03-08T12:40:27.849Z,1001.78
2019-03-08T12:41:38.139Z,1001.87
2019-03-08T12:42:48.673Z,1001.81
2019-03-08T12:44:05.540Z,1001.69
2019-03-08T12:45:15.747Z,1001.75
2019-03-08T12:46:25.941Z,1001.92
2019-03-08T12:47:35.935Z,1002.03
2019-03-08T12:48:45.941Z,1001.91
2019-03-08T12:49:57.657Z,1002.1
2019-03-08T12:51:07.725Z,1002.02
2019-03-08T12:52:17.772Z,1002.06
2019-03-08T12:53:27.261Z,1001.97
2019-03-08T12:54:37.029Z,1002.01
2019-03-08T12:55:46.799Z,1002.11
2019-03-08T12:56:56.801Z,1002.19
2019-03-08T12:58:06.809Z,1002.1
2019-03-08T12:59:16.810Z,1002.02
2019-03-08T13:00:26.820Z,1002.04
2019-03-08T13:01:36.822Z,1002.43
2019-03-08T13:02:46.570Z,1002.38
2019-03-08T13:03:56.572Z,1002
2019-03-08T13:05:06.603Z,1002.12
2019-03-08T13:06:16.635Z,1002.07
2019-03-08T13:07:28.492Z,1002.22
2019-03-08T13:08:38.628Z,1002.36
2019-03-08T13:09:48.649Z,1002.31
2019-03-08T13:10:58.413Z,1002.24
2019-03-08T13:12:07.897Z,1002.23
2019-03-08T13:13:17.658Z,1002.34
2019-03-08T13:14:27.648Z,1002.23
2019-03-08T13:15:37.662Z,1002.38
2019-03-08T13:16:47.412Z,1002.3
2019-03-08T13:17:57.446Z,1002.39
2019-03-08T13:19:07.440Z,1002.38
2019-03-08T13:20:17.421Z,1002.48
2019-03-08T13:21:27.431Z,1002.47
2019-03-08T13:22:37.444Z,1002.54
2019-03-08T13:23:47.440Z,1002.55
2019-03-08T13:24:57.741Z,1002.63
2019-03-08T13:26:08.279Z,1002.49
2019-03-08T13:27:18.728Z,1002.52
2019-03-08T13:28:28.934Z,1002.59
2019-03-08T13:29:39.376Z,1002.58
2019-03-08T13:30:49.581Z,1002.78
2019-03-08T13:32:00.143Z,1002.69
2019-03-08T13:33:09.925Z,1002.62
2019-03-08T13:34:20.089Z,1002.51
2019-03-08T13:35:30.189Z,1002.84
2019-03-08T13:36:39.931Z,1002.85
2019-03-08T13:37:50.143Z,1002.79
2019-03-08T13:38:59.893Z,1002.7
2019-03-08T13:40:09.653Z,1002.98
2019-03-08T13:41:19.654Z,1002.87
2019-03-08T13:42:29.651Z,1002.95
2019-03-08T13:43:39.648Z,1003.01
2019-03-08T13:44:49.641Z,1003.02
2019-03-08T13:45:59.647Z,1003.02
2019-03-08T13:47:09.397Z,1002.93
2019-03-08T13:48:19.171Z,1003
2019-03-08T13:49:29.148Z,1003.1
2019-03-08T13:50:38.873Z,1002.83
2019-03-08T13:51:48.625Z,1003.31
2019-03-08T13:52:58.637Z,1003.24
2019-03-08T13:54:08.663Z,1003.21
2019-03-08T13:55:18.432Z,1003.23
2019-03-08T13:56:28.445Z,1003.23
2019-03-08T13:57:38.251Z,1003.3
2019-03-08T13:58:48.255Z,1003.38
2019-03-08T13:59:58.256Z,1003.46
2019-03-08T14:01:08.306Z,1003.56
2019-03-08T14:02:18.301Z,1003.45
2019-03-08T14:03:28.035Z,1003.46
2019-03-08T14:04:38.040Z,1003.47
2019-03-08T14:05:47.785Z,1003.44
2019-03-08T14:06:57.308Z,1003.59
2019-03-08T14:08:07.063Z,1003.57
2019-03-08T14:09:17.117Z,1003.63
2019-03-08T14:10:26.864Z,1003.59
2019-03-08T14:11:36.604Z,1003.67
2019-03-08T14:12:46.593Z,1003.74
2019-03-08T14:13:56.357Z,1003.65
2019-03-08T14:15:06.115Z,1003.64
2019-03-08T14:16:16.131Z,1003.68
2019-03-08T14:17:25.632Z,1003.65
2019-03-08T14:18:35.138Z,1003.84
2019-03-08T14:19:44.895Z,1003.92
2019-03-08T14:20:54.887Z,1003.84
2019-03-08T14:22:04.873Z,1003.77
2019-03-08T14:23:15.091Z,1003.94
2019-03-08T14:24:25.357Z,1003.9
2019-03-08T14:25:35.802Z,1003.91
2019-03-08T14:26:46.395Z,1003.83
2019-03-08T14:27:56.718Z,1003.87
2019-03-08T14:29:07.105Z,1003.91
2019-03-08T14:30:19.356Z,1004.02
2019-03-08T14:31:32.758Z,1004.03
2019-03-08T14:32:46.022Z,1003.9